Falcon Heights, Texas
Current Conditions -  °F | °C
As of 11:15 PM on Monday 20 Oct 2014 (Local Time) from KAPY Reporting Station
Overcast Overcast  
Wind Chill: 74°   Ceiling: 8000
Heat Index: 74°   Visibility: 10mi
Dew Point: 66°   Wind: 8mph
Humidity: 77%   Direction: 100°E
Pressure: 29.98"   Gusts: NA
Location:  26.56°N, 99.12°W
Report Text: KAPY 210415Z AUTO 10007KT 10SM OVC080 23/18 A2998 RMK AO2 T02340191
Loading
Personal Weather Stations






























Interactive Weather Map
Tropical Storm Tracking
New forecast layout! Learn more

10-Day Weather Forecast

Advertisements
Track Severe Weather on mobile